Time;durP1;ratioP1;P1;durP2;ratioP2;P2;SDS_P1;SDS_P2;PMS_P1;PMS_P2;Temp;Humidity;BMP_temperature;BMP_pressure;BME280_temperature;BME280_humidity;BME280_pressure;Samples;Min_cycle;Max_cycle;Signal;HPM_P1;HPM_P2
2023/06/23 00:01:45;;;;;;;56.63;2.00;;;;;;;;;;5050125;28;20453;-70
2023/06/23 00:04:14;;;;;;;56.50;2.10;;;;;;;;;;5034231;28;20473;-69
2023/06/23 00:06:41;;;;;;;56.57;1.90;;;;;;;;;;5033791;28;20964;-70
2023/06/23 00:09:13;;;;;;;56.57;2.17;;;;;;;;;;5033294;28;20946;-70
2023/06/23 00:11:40;;;;;;;56.67;1.90;;;;;;;;;;5034191;28;20489;-69
2023/06/23 00:14:07;;;;;;;58.27;2.20;;;;;;;;;;5033954;28;20465;-70
2023/06/23 00:16:36;;;;;;;56.97;2.10;;;;;;;;;;5034104;28;20451;-70
2023/06/23 00:19:03;;;;;;;56.90;2.20;;;;;;;;;;5033282;28;20453;-70
2023/06/23 00:21:31;;;;;;;57.00;1.90;;;;;;;;;;5033711;28;20452;-69
2023/06/23 00:23:58;;;;;;;57.57;2.40;;;;;;;;;;5033671;28;20464;-69
2023/06/23 00:26:25;;;;;;;56.53;2.10;;;;;;;;;;5033569;28;20448;-69
2023/06/23 00:28:53;;;;;;;56.50;1.90;;;;;;;;;;5033171;28;20448;-69
2023/06/23 00:31:20;;;;;;;56.67;2.00;;;;;;;;;;5033737;28;20817;-69
2023/06/23 00:33:47;;;;;;;56.70;2.47;;;;;;;;;;5033841;28;20671;-70
2023/06/23 00:36:14;;;;;;;56.60;2.30;;;;;;;;;;5033580;28;20445;-69
2023/06/23 00:38:44;;;;;;;59.50;2.63;;;;;;;;;;5032693;28;20862;-70
2023/06/23 00:41:12;;;;;;;56.80;2.10;;;;;;;;;;5033269;28;20465;-70
2023/06/23 00:43:39;;;;;;;56.07;1.90;;;;;;;;;;5033220;28;21005;-70
2023/06/23 00:46:08;;;;;;;57.00;2.40;;;;;;;;;;5033538;28;20445;-69
2023/06/23 00:48:36;;;;;;;56.63;2.10;;;;;;;;;;5032649;28;20459;-70
2023/06/23 00:51:03;;;;;;;56.77;2.13;;;;;;;;;;5032950;28;20832;-70
2023/06/23 00:53:30;;;;;;;56.97;2.10;;;;;;;;;;5032907;28;20471;-70
2023/06/23 00:55:59;;;;;;;56.33;2.00;;;;;;;;;;5033126;28;20472;-70
2023/06/23 00:58:27;;;;;;;56.67;1.90;;;;;;;;;;5033098;28;20484;-70
2023/06/23 01:00:56;;;;;;;56.57;2.10;;;;;;;;;;5032527;28;20446;-70
2023/06/23 01:03:23;;;;;;;56.97;2.00;;;;;;;;;;5033239;28;20473;-70
2023/06/23 01:05:51;;;;;;;56.67;1.90;;;;;;;;;;5032959;28;20822;-70
2023/06/23 01:08:25;;;;;;;56.77;2.20;;;;;;;;;;5034234;28;20449;-69
2023/06/23 01:10:53;;;;;;;56.47;1.80;;;;;;;;;;5052340;28;20437;-70
2023/06/23 01:13:25;;;;;;;57.67;2.43;;;;;;;;;;5052649;28;20479;-69
2023/06/23 01:15:54;;;;;;;56.77;2.00;;;;;;;;;;5052905;28;20432;-69
2023/06/23 01:18:27;;;;;;;56.43;2.00;;;;;;;;;;5052657;28;20845;-69
2023/06/23 01:20:54;;;;;;;57.10;2.40;;;;;;;;;;5052390;28;21090;-70
2023/06/23 01:23:29;;;;;;;56.53;2.07;;;;;;;;;;5052652;28;20472;-70
2023/06/23 01:25:57;;;;;;;57.00;2.13;;;;;;;;;;5052481;28;20905;-70
2023/06/23 01:28:33;;;;;;;56.90;2.10;;;;;;;;;;5052401;28;20440;-69
2023/06/23 01:31:01;;;;;;;57.27;2.20;;;;;;;;;;5052873;28;20810;-69
2023/06/23 01:33:30;;;;;;;57.53;2.60;;;;;;;;;;5052141;28;20468;-69
2023/06/23 01:36:03;;;;;;;57.03;2.33;;;;;;;;;;5052371;28;20824;-68
2023/06/23 01:38:35;;;;;;;57.37;2.60;;;;;;;;;;5052011;28;20488;-68
2023/06/23 01:41:04;;;;;;;57.40;2.63;;;;;;;;;;5052461;28;20805;-68
2023/06/23 01:43:33;;;;;;;56.93;2.30;;;;;;;;;;5052071;28;20468;-68
2023/06/23 01:46:03;;;;;;;57.17;2.30;;;;;;;;;;5052194;28;20539;-68
2023/06/23 01:48:31;;;;;;;57.17;2.57;;;;;;;;;;5051677;28;20451;-69
2023/06/23 01:50:58;;;;;;;57.10;2.40;;;;;;;;;;5051868;28;20452;-69
2023/06/23 01:53:26;;;;;;;57.93;2.80;;;;;;;;;;5050677;28;20841;-68
2023/06/23 01:55:54;;;;;;;57.50;2.53;;;;;;;;;;5048302;28;20828;-69
2023/06/23 01:58:21;;;;;;;57.27;3.20;;;;;;;;;;5046378;28;20492;-68
2023/06/23 02:00:50;;;;;;;57.90;2.83;;;;;;;;;;5046912;28;20441;-69
2023/06/23 02:03:17;;;;;;;57.53;2.80;;;;;;;;;;5031946;28;20500;-68
2023/06/23 02:05:46;;;;;;;58.10;2.83;;;;;;;;;;5031477;28;20445;-68
2023/06/23 02:08:14;;;;;;;57.33;2.60;;;;;;;;;;5031863;28;20457;-69
2023/06/23 02:10:41;;;;;;;57.33;2.30;;;;;;;;;;5031149;28;20450;-69
2023/06/23 02:13:11;;;;;;;57.07;2.63;;;;;;;;;;5031291;28;20477;-69
2023/06/23 02:15:39;;;;;;;57.97;3.00;;;;;;;;;;5031914;28;20977;-69
2023/06/23 02:18:09;;;;;;;57.07;2.30;;;;;;;;;;5031666;28;20485;-69
2023/06/23 02:20:37;;;;;;;57.30;2.90;;;;;;;;;;5042786;28;20968;-69
2023/06/23 02:23:04;;;;;;;57.23;2.33;;;;;;;;;;5036706;28;20469;-69
2023/06/23 02:25:32;;;;;;;57.10;2.60;;;;;;;;;;5031533;28;20825;-69
2023/06/23 02:27:59;;;;;;;57.27;2.50;;;;;;;;;;5031895;28;20445;-69
2023/06/23 02:30:26;;;;;;;57.03;2.50;;;;;;;;;;5031032;28;20464;-69
2023/06/23 02:32:53;;;;;;;56.93;2.60;;;;;;;;;;5031289;28;20946;-69
2023/06/23 02:35:22;;;;;;;57.03;2.63;;;;;;;;;;5031510;28;20449;-69
2023/06/23 02:37:50;;;;;;;57.17;2.40;;;;;;;;;;5031538;28;20491;-69
2023/06/23 02:40:18;;;;;;;57.20;2.50;;;;;;;;;;5030838;28;20453;-69
2023/06/23 02:42:48;;;;;;;57.27;2.80;;;;;;;;;;5031399;28;20441;-69
2023/06/23 02:45:18;;;;;;;57.27;2.60;;;;;;;;;;5031449;28;20450;-70
2023/06/23 02:47:46;;;;;;;57.27;2.83;;;;;;;;;;5031485;28;20443;-69
2023/06/23 02:50:13;;;;;;;57.90;2.80;;;;;;;;;;5030449;28;20453;-69
2023/06/23 02:52:45;;;;;;;57.07;2.40;;;;;;;;;;5031090;28;20456;-70
2023/06/23 02:55:14;;;;;;;57.07;2.40;;;;;;;;;;5031288;28;20434;-70
2023/06/23 02:57:42;;;;;;;56.97;2.60;;;;;;;;;;5030866;28;20429;-69
2023/06/23 03:00:14;;;;;;;57.40;2.70;;;;;;;;;;5030521;28;20474;-69
2023/06/23 03:02:42;;;;;;;57.60;3.27;;;;;;;;;;5031231;28;20430;-69
2023/06/23 03:05:09;;;;;;;57.27;2.70;;;;;;;;;;5031305;28;20548;-70
2023/06/23 03:07:38;;;;;;;57.00;2.40;;;;;;;;;;5030908;28;20458;-69
2023/06/23 03:10:07;;;;;;;57.17;2.33;;;;;;;;;;5030485;28;20464;-69
2023/06/23 03:12:35;;;;;;;57.40;2.87;;;;;;;;;;5031093;28;20493;-69
2023/06/23 03:15:02;;;;;;;57.70;2.87;;;;;;;;;;5030811;28;21001;-70
2023/06/23 03:17:51;;;;;;;56.87;2.30;;;;;;;;;;5032133;28;20467;-70
2023/06/23 03:20:24;;;;;;;57.00;2.70;;;;;;;;;;5047889;28;20444;-70
2023/06/23 03:22:54;;;;;;;57.20;2.60;;;;;;;;;;5041866;28;20441;-69
2023/06/23 03:25:25;;;;;;;56.97;2.43;;;;;;;;;;5034633;28;20445;-69
2023/06/23 03:27:54;;;;;;;57.50;2.90;;;;;;;;;;5035736;28;20543;-69
2023/06/23 03:30:25;;;;;;;57.23;2.47;;;;;;;;;;5053460;28;20440;-69
2023/06/23 03:32:53;;;;;;;58.03;3.17;;;;;;;;;;5045845;28;20474;-70
2023/06/23 03:35:22;;;;;;;57.40;3.30;;;;;;;;;;5045618;28;20453;-69
2023/06/23 03:37:50;;;;;;;57.30;2.30;;;;;;;;;;5037326;28;20460;-69
2023/06/23 03:40:19;;;;;;;57.10;2.67;;;;;;;;;;5053712;28;20456;-69
2023/06/23 03:42:50;;;;;;;56.97;2.40;;;;;;;;;;5034717;28;20510;-69
2023/06/23 03:45:17;;;;;;;57.33;2.77;;;;;;;;;;5034521;28;20448;-69
2023/06/23 03:47:45;;;;;;;57.50;2.83;;;;;;;;;;5038395;28;20458;-69
2023/06/23 03:50:13;;;;;;;57.87;3.80;;;;;;;;;;5046245;28;20516;-69
2023/06/23 03:52:40;;;;;;;57.00;2.73;;;;;;;;;;5037510;28;20464;-69
2023/06/23 03:55:08;;;;;;;56.90;2.50;;;;;;;;;;5053973;28;20444;-69
2023/06/23 03:57:36;;;;;;;57.30;2.77;;;;;;;;;;5043943;28;20448;-69
2023/06/23 04:00:06;;;;;;;57.10;2.70;;;;;;;;;;5047028;28;20480;-69
2023/06/23 04:02:33;;;;;;;57.87;3.53;;;;;;;;;;5034318;28;20449;-70
2023/06/23 04:05:01;;;;;;;57.47;3.17;;;;;;;;;;5034068;28;20475;-69
2023/06/23 04:07:29;;;;;;;59.60;3.27;;;;;;;;;;5044296;28;20459;-69
2023/06/23 04:09:57;;;;;;;56.83;2.30;;;;;;;;;;5039508;28;20445;-69
2023/06/23 04:12:25;;;;;;;57.20;2.40;;;;;;;;;;5034152;28;20460;-70
2023/06/23 04:14:53;;;;;;;57.00;2.40;;;;;;;;;;5034107;28;20491;-70
2023/06/23 04:17:24;;;;;;;56.97;2.50;;;;;;;;;;5034085;28;20449;-70
2023/06/23 04:19:52;;;;;;;57.17;2.37;;;;;;;;;;5049666;28;20484;-69
2023/06/23 04:22:21;;;;;;;57.30;2.70;;;;;;;;;;5037362;28;20453;-70
2023/06/23 04:24:48;;;;;;;59.30;4.10;;;;;;;;;;5033370;28;20465;-70
2023/06/23 04:27:18;;;;;;;56.70;2.27;;;;;;;;;;5033543;28;20465;-69
2023/06/23 04:29:46;;;;;;;56.90;2.87;;;;;;;;;;5032643;28;20457;-69
2023/06/23 04:32:14;;;;;;;57.00;2.60;;;;;;;;;;5033783;28;20445;-69
2023/06/23 04:34:43;;;;;;;56.83;2.23;;;;;;;;;;5033423;28;20474;-69
2023/06/23 04:37:12;;;;;;;57.10;2.73;;;;;;;;;;5033367;28;21027;-70
2023/06/23 04:39:45;;;;;;;56.93;2.83;;;;;;;;;;5032983;28;20488;-70
2023/06/23 04:42:14;;;;;;;57.77;2.70;;;;;;;;;;5033682;28;20802;-69
2023/06/23 04:44:52;;;;;;;57.60;3.20;;;;;;;;;;5033524;28;20475;-69
2023/06/23 04:47:21;;;;;;;56.90;2.30;;;;;;;;;;5033458;28;20439;-70
2023/06/23 04:49:51;;;;;;;56.97;2.77;;;;;;;;;;5032799;28;20535;-70
2023/06/23 04:52:20;;;;;;;57.03;3.20;;;;;;;;;;5033375;28;20464;-70
2023/06/23 04:54:51;;;;;;;57.70;3.30;;;;;;;;;;5033249;28;20841;-69
2023/06/23 04:57:21;;;;;;;57.43;2.93;;;;;;;;;;5032874;28;20958;-70
2023/06/23 04:59:51;;;;;;;59.87;3.13;;;;;;;;;;5032304;28;21178;-69
2023/06/23 05:02:19;;;;;;;59.20;3.27;;;;;;;;;;5033099;28;20437;-70
2023/06/23 05:04:48;;;;;;;57.30;2.90;;;;;;;;;;5033017;28;20476;-69
2023/06/23 05:07:17;;;;;;;58.47;2.83;;;;;;;;;;5032929;28;20811;-69
2023/06/23 05:09:47;;;;;;;57.20;2.87;;;;;;;;;;5032258;28;20449;-69
2023/06/23 05:12:15;;;;;;;57.87;3.43;;;;;;;;;;5032765;28;20449;-70
2023/06/23 05:14:42;;;;;;;57.00;2.53;;;;;;;;;;5032727;28;20472;-69
2023/06/23 05:17:11;;;;;;;57.00;2.80;;;;;;;;;;5032690;28;20429;-69
2023/06/23 05:19:38;;;;;;;58.10;4.27;;;;;;;;;;5032027;28;20485;-69
2023/06/23 05:22:08;;;;;;;60.00;3.87;;;;;;;;;;5032894;28;20460;-70
2023/06/23 05:24:37;;;;;;;57.73;3.07;;;;;;;;;;5032806;28;20519;-70
2023/06/23 05:27:07;;;;;;;58.10;3.50;;;;;;;;;;5032723;28;20835;-70
2023/06/23 05:29:37;;;;;;;57.67;3.43;;;;;;;;;;5032097;28;20433;-70
2023/06/23 05:32:05;;;;;;;57.33;3.60;;;;;;;;;;5032713;28;20453;-69
2023/06/23 05:34:33;;;;;;;57.17;3.13;;;;;;;;;;5032627;28;20489;-69
2023/06/23 05:37:01;;;;;;;56.93;2.90;;;;;;;;;;5032260;28;20451;-69
2023/06/23 05:39:29;;;;;;;58.97;5.47;;;;;;;;;;5031290;28;20547;-70
2023/06/23 05:41:57;;;;;;;58.73;3.10;;;;;;;;;;5032047;28;20445;-69
2023/06/23 05:44:24;;;;;;;57.73;3.90;;;;;;;;;;5032409;28;20469;-69
2023/06/23 05:46:55;;;;;;;57.00;2.63;;;;;;;;;;5032199;28;20455;-69
2023/06/23 05:49:23;;;;;;;57.27;2.77;;;;;;;;;;5031536;28;20511;-69
2023/06/23 05:51:53;;;;;;;57.60;3.57;;;;;;;;;;5033625;28;21035;-70
2023/06/23 05:54:21;;;;;;;58.53;3.13;;;;;;;;;;5051526;28;20479;-69
2023/06/23 05:56:52;;;;;;;57.70;2.77;;;;;;;;;;5048437;28;20456;-70
2023/06/23 05:59:23;;;;;;;60.20;3.33;;;;;;;;;;5050668;28;21019;-70
2023/06/23 06:01:52;;;;;;;59.67;3.40;;;;;;;;;;5031970;28;20436;-70
2023/06/23 06:04:21;;;;;;;59.73;4.53;;;;;;;;;;5046521;28;20469;-69
2023/06/23 06:06:48;;;;;;;59.43;4.30;;;;;;;;;;5038941;28;20445;-69
2023/06/23 06:09:17;;;;;;;57.93;3.10;;;;;;;;;;5035206;28;20445;-69
2023/06/23 06:11:45;;;;;;;57.30;2.87;;;;;;;;;;5043759;28;20453;-70
2023/06/23 06:14:12;;;;;;;57.30;3.23;;;;;;;;;;5051814;28;20563;-70
2023/06/23 06:16:42;;;;;;;58.00;3.60;;;;;;;;;;5051724;28;20444;-69
2023/06/23 06:19:09;;;;;;;58.27;3.80;;;;;;;;;;5051004;28;20852;-70
2023/06/23 06:21:39;;;;;;;58.53;3.43;;;;;;;;;;5051635;28;20448;-70
2023/06/23 06:24:07;;;;;;;58.03;4.40;;;;;;;;;;5051529;28;20479;-70
2023/06/23 06:26:34;;;;;;;57.00;3.00;;;;;;;;;;5051451;28;20826;-70
2023/06/23 06:29:04;;;;;;;58.60;3.53;;;;;;;;;;5050789;28;20505;-69
2023/06/23 06:31:34;;;;;;;57.47;3.93;;;;;;;;;;5051253;28;20459;-69
2023/06/23 06:34:03;;;;;;;56.80;2.70;;;;;;;;;;5050967;28;20529;-70
2023/06/23 06:36:31;;;;;;;59.20;4.70;;;;;;;;;;5051435;28;20444;-69
2023/06/23 06:39:00;;;;;;;58.17;3.20;;;;;;;;;;5050683;28;20487;-70
2023/06/23 06:41:27;;;;;;;58.17;3.20;;;;;;;;;;5051104;28;20535;-69
2023/06/23 06:43:56;;;;;;;58.50;3.37;;;;;;;;;;5051173;28;20471;-69
2023/06/23 06:46:23;;;;;;;58.53;3.20;;;;;;;;;;5051251;28;20862;-70
2023/06/23 06:48:50;;;;;;;58.80;4.03;;;;;;;;;;5050586;28;20452;-70
2023/06/23 06:51:19;;;;;;;57.67;3.40;;;;;;;;;;5051063;28;20502;-70
2023/06/23 06:53:46;;;;;;;56.77;2.20;;;;;;;;;;5050827;28;20972;-69
2023/06/23 06:56:14;;;;;;;59.27;3.73;;;;;;;;;;5050670;28;20463;-69
2023/06/23 06:58:42;;;;;;;57.63;3.17;;;;;;;;;;5050431;28;20449;-69
2023/06/23 07:01:09;;;;;;;58.30;4.40;;;;;;;;;;5050763;28;20452;-69
2023/06/23 07:03:39;;;;;;;58.60;4.10;;;;;;;;;;5051066;28;20883;-69
2023/06/23 07:06:07;;;;;;;57.90;3.13;;;;;;;;;;5050800;28;20448;-69
2023/06/23 07:08:36;;;;;;;59.40;3.60;;;;;;;;;;5050112;28;20456;-70
2023/06/23 07:11:03;;;;;;;57.27;3.10;;;;;;;;;;5050793;28;20451;-70
2023/06/23 07:13:30;;;;;;;58.10;3.60;;;;;;;;;;5050598;28;20464;-70
2023/06/23 07:15:57;;;;;;;60.17;3.20;;;;;;;;;;5050936;28;20444;-70
2023/06/23 07:18:24;;;;;;;60.17;4.00;;;;;;;;;;5050937;28;20538;-70
2023/06/23 07:23:56;;;;;;;57.50;3.80;;;;;;;;;;5047989;28;20465;-70
2023/06/23 07:26:23;;;;;;;59.97;6.10;;;;;;;;;;5033262;28;20445;-70
2023/06/23 07:31:54;;;;;;;58.23;2.80;;;;;;;;;;5040702;28;20477;-70
2023/06/23 07:34:21;;;;;;;57.37;3.47;;;;;;;;;;5050286;28;20533;-70
2023/06/23 07:36:48;;;;;;;58.07;3.23;;;;;;;;;;5050244;28;21025;-70
2023/06/23 07:39:17;;;;;;;58.23;2.97;;;;;;;;;;5041703;28;21013;-70
2023/06/23 07:41:44;;;;;;;57.60;2.90;;;;;;;;;;5030969;28;20825;-70
2023/06/23 07:44:11;;;;;;;58.47;3.30;;;;;;;;;;5030816;28;20837;-69
2023/06/23 07:46:38;;;;;;;58.13;2.87;;;;;;;;;;5030608;28;20450;-70
2023/06/23 07:49:05;;;;;;;57.17;2.47;;;;;;;;;;5030088;28;20455;-70
2023/06/23 07:51:32;;;;;;;57.87;2.80;;;;;;;;;;5030650;28;20456;-70
2023/06/23 07:53:59;;;;;;;57.10;2.40;;;;;;;;;;5030509;28;20986;-70
2023/06/23 07:56:27;;;;;;;58.60;4.00;;;;;;;;;;5030518;28;20806;-70
2023/06/23 07:58:55;;;;;;;56.97;2.43;;;;;;;;;;5035653;28;20448;-70
2023/06/23 08:01:22;;;;;;;57.80;3.33;;;;;;;;;;5050387;28;20488;-69
2023/06/23 08:03:49;;;;;;;58.63;3.00;;;;;;;;;;5047131;28;20472;-70
2023/06/23 08:06:22;;;;;;;57.70;3.27;;;;;;;;;;5046759;28;20456;-70
2023/06/23 08:08:49;;;;;;;58.30;3.27;;;;;;;;;;5046303;28;20550;-70
2023/06/23 08:11:16;;;;;;;57.97;3.90;;;;;;;;;;5054040;28;20444;-70
2023/06/23 08:13:45;;;;;;;57.20;2.90;;;;;;;;;;5053968;28;20472;-70
2023/06/23 08:16:12;;;;;;;57.83;3.20;;;;;;;;;;5053708;28;20953;-69
2023/06/23 08:18:39;;;;;;;57.70;2.60;;;;;;;;;;5053404;28;20469;-70
2023/06/23 08:21:06;;;;;;;57.37;2.30;;;;;;;;;;5053888;28;20486;-70
2023/06/23 08:23:34;;;;;;;57.07;2.67;;;;;;;;;;5053696;28;20472;-70
2023/06/23 08:26:01;;;;;;;59.13;2.97;;;;;;;;;;5053589;28;20936;-70
2023/06/23 08:28:28;;;;;;;58.17;2.57;;;;;;;;;;5053486;28;20546;-70
2023/06/23 08:30:57;;;;;;;57.40;2.97;;;;;;;;;;5053358;28;20794;-70
2023/06/23 08:33:24;;;;;;;57.97;2.97;;;;;;;;;;5053649;28;21015;-70
2023/06/23 08:35:51;;;;;;;57.30;3.17;;;;;;;;;;5053273;28;20488;-70
2023/06/23 08:38:18;;;;;;;58.70;3.30;;;;;;;;;;5053675;28;20476;-70
2023/06/23 08:40:47;;;;;;;56.67;2.40;;;;;;;;;;5052834;28;20483;-70
2023/06/23 08:43:14;;;;;;;57.10;2.60;;;;;;;;;;5053327;28;20781;-70
2023/06/23 08:45:42;;;;;;;57.60;3.50;;;;;;;;;;5053378;28;20484;-70
2023/06/23 08:48:11;;;;;;;59.60;4.90;;;;;;;;;;5053435;28;20490;-70
2023/06/23 08:50:38;;;;;;;57.10;2.73;;;;;;;;;;5052669;28;20836;-70
2023/06/23 08:53:06;;;;;;;56.90;2.43;;;;;;;;;;5053057;28;20475;-70
2023/06/23 08:55:33;;;;;;;57.93;2.37;;;;;;;;;;5053099;28;20474;-70
2023/06/23 08:58:00;;;;;;;56.60;3.00;;;;;;;;;;5052912;28;20506;-70
2023/06/23 09:00:28;;;;;;;57.10;2.27;;;;;;;;;;5052495;28;20480;-69
2023/06/23 09:02:55;;;;;;;56.83;2.50;;;;;;;;;;5053021;28;20957;-70
2023/06/23 09:05:24;;;;;;;57.40;2.57;;;;;;;;;;5052747;28;20474;-70
2023/06/23 09:07:51;;;;;;;57.33;2.70;;;;;;;;;;5053358;28;20635;-70
2023/06/23 09:10:19;;;;;;;56.80;2.40;;;;;;;;;;5052057;28;20527;-70
2023/06/23 09:12:57;;;;;;;57.10;2.93;;;;;;;;;;5052702;28;20452;-70
2023/06/23 09:15:25;;;;;;;56.90;2.67;;;;;;;;;;5052616;28;20443;-70
2023/06/23 09:17:52;;;;;;;57.07;2.70;;;;;;;;;;5052717;28;20979;-70
2023/06/23 09:20:19;;;;;;;58.10;2.30;;;;;;;;;;5051751;28;20476;-70
2023/06/23 09:22:48;;;;;;;57.20;2.60;;;;;;;;;;5048449;28;20462;-70
2023/06/23 09:25:37;;;;;;;58.50;2.53;;;;;;;;;;5050718;28;20957;-70
2023/06/23 09:28:05;;;;;;;57.60;3.10;;;;;;;;;;5047192;28;20436;-70
2023/06/23 09:30:35;;;;;;;57.20;3.07;;;;;;;;;;5051557;28;20456;-69
2023/06/23 09:33:05;;;;;;;57.10;2.40;;;;;;;;;;5045986;28;20476;-70
2023/06/23 09:35:32;;;;;;;57.07;3.10;;;;;;;;;;5032487;28;20523;-70
2023/06/23 09:38:00;;;;;;;59.03;3.27;;;;;;;;;;5039462;28;20449;-70
2023/06/23 09:40:28;;;;;;;56.67;2.50;;;;;;;;;;5051261;28;20590;-70
2023/06/23 09:42:58;;;;;;;56.50;2.17;;;;;;;;;;5051851;28;20455;-70
2023/06/23 09:45:25;;;;;;;64.13;2.80;;;;;;;;;;5051595;28;20425;-70
2023/06/23 09:47:53;;;;;;;57.07;2.90;;;;;;;;;;5051856;28;20452;-70
2023/06/23 09:50:23;;;;;;;58.07;3.60;;;;;;;;;;5051130;28;20444;-70
2023/06/23 09:53:03;;;;;;;57.27;3.20;;;;;;;;;;5051775;28;20452;-70
2023/06/23 09:55:31;;;;;;;57.30;3.50;;;;;;;;;;5051501;28;20459;-69
2023/06/23 09:57:58;;;;;;;57.27;3.00;;;;;;;;;;5051535;28;20455;-70
2023/06/23 10:00:30;;;;;;;57.20;2.77;;;;;;;;;;5050644;28;21012;-70
2023/06/23 10:02:59;;;;;;;57.30;2.80;;;;;;;;;;5052139;28;20453;-70
2023/06/23 10:05:26;;;;;;;56.90;2.47;;;;;;;;;;5051871;28;20486;-70
2023/06/23 10:08:07;;;;;;;57.20;2.67;;;;;;;;;;5051660;28;20451;-70
2023/06/23 10:10:34;;;;;;;57.57;2.27;;;;;;;;;;5051441;28;20459;-70
2023/06/23 10:13:01;;;;;;;56.97;3.10;;;;;;;;;;5051512;28;20475;-71
2023/06/23 10:15:29;;;;;;;57.70;2.70;;;;;;;;;;5051698;28;20448;-70
2023/06/23 10:17:56;;;;;;;56.90;2.73;;;;;;;;;;5051567;28;20448;-70
2023/06/23 10:20:23;;;;;;;56.97;2.80;;;;;;;;;;5050664;28;20490;-70
2023/06/23 10:22:51;;;;;;;57.10;2.57;;;;;;;;;;5051464;28;20448;-71
2023/06/23 10:25:21;;;;;;;58.30;2.93;;;;;;;;;;5051220;28;20456;-71
2023/06/23 10:27:51;;;;;;;56.90;2.30;;;;;;;;;;5051320;28;20452;-70
2023/06/23 10:36:26;;;;;;;57.37;2.27;;;;;;;;;;5048391;28;20487;-70
2023/06/23 10:38:54;;;;;;;56.50;2.03;;;;;;;;;;5037588;28;20456;-71
2023/06/23 10:41:24;;;;;;;56.83;2.43;;;;;;;;;;5032074;28;20500;-71
2023/06/23 10:43:54;;;;;;;57.20;3.07;;;;;;;;;;5051277;28;20464;-71
2023/06/23 10:46:21;;;;;;;58.03;2.20;;;;;;;;;;5051159;28;20456;-70
2023/06/23 10:49:20;;;;;;;57.10;2.37;;;;;;;;;;5037834;28;20457;-70
2023/06/23 10:51:47;;;;;;;56.50;2.07;;;;;;;;;;5047322;28;20610;-71
2023/06/23 10:54:26;;;;;;;57.87;2.20;;;;;;;;;;5034921;28;20472;-70
2023/06/23 10:56:55;;;;;;;57.87;2.50;;;;;;;;;;5031158;28;20457;-70
2023/06/23 10:59:23;;;;;;;56.90;2.63;;;;;;;;;;5031746;28;20441;-70
2023/06/23 11:02:09;;;;;;;57.50;3.03;;;;;;;;;;5050954;28;20553;-71
2023/06/23 11:04:41;;;;;;;56.10;2.33;;;;;;;;;;5050998;28;20517;-70
2023/06/23 11:07:09;;;;;;;56.60;2.40;;;;;;;;;;5051125;28;20455;-71
2023/06/23 11:09:45;;;;;;;57.00;2.77;;;;;;;;;;5031050;28;20529;-71
2023/06/23 11:12:31;;;;;;;56.23;2.10;;;;;;;;;;5031237;28;20523;-68
2023/06/23 11:15:20;;;;;;;56.20;2.00;;;;;;;;;;5031145;28;20473;-69
2023/06/23 11:17:49;;;;;;;57.27;1.90;;;;;;;;;;5026838;28;20556;-69
2023/06/23 11:20:28;;;;;;;56.80;2.57;;;;;;;;;;5030319;28;20453;-70
2023/06/23 11:22:56;;;;;;;57.67;2.70;;;;;;;;;;5031016;28;20786;-70
2023/06/23 11:25:30;;;;;;;56.80;2.30;;;;;;;;;;5031029;28;20455;-69
2023/06/23 11:28:11;;;;;;;56.30;2.67;;;;;;;;;;5031391;28;20464;-69
2023/06/23 11:30:52;;;;;;;56.53;2.03;;;;;;;;;;5017912;28;20484;-70
2023/06/23 11:33:30;;;;;;;56.40;2.43;;;;;;;;;;5030659;28;20936;-69
2023/06/23 11:36:00;;;;;;;56.00;2.00;;;;;;;;;;5030970;28;20539;-69
2023/06/23 11:38:28;;;;;;;56.07;1.90;;;;;;;;;;5031773;28;20437;-69
2023/06/23 11:40:57;;;;;;;59.10;2.10;;;;;;;;;;5034124;28;20484;-70
2023/06/23 11:43:24;;;;;;;56.83;2.73;;;;;;;;;;5034700;28;20499;-70
2023/06/23 11:45:53;;;;;;;55.97;1.80;;;;;;;;;;5034532;28;20476;-70
2023/06/23 11:48:21;;;;;;;55.77;1.80;;;;;;;;;;5034697;28;20449;-71
2023/06/23 11:50:49;;;;;;;55.90;1.73;;;;;;;;;;5034067;28;20456;-70
2023/06/23 11:53:17;;;;;;;56.70;2.47;;;;;;;;;;5034428;28;20464;-72
2023/06/23 11:55:44;;;;;;;56.40;2.40;;;;;;;;;;5034145;28;20957;-71
2023/06/23 11:58:12;;;;;;;56.67;2.20;;;;;;;;;;5034113;28;21167;-71
2023/06/23 12:00:39;;;;;;;55.90;1.90;;;;;;;;;;5033465;28;20942;-72
2023/06/23 12:03:06;;;;;;;56.40;2.30;;;;;;;;;;5034299;28;20473;-71
2023/06/23 12:05:40;;;;;;;56.30;1.93;;;;;;;;;;5034175;28;20448;-72
2023/06/23 12:08:09;;;;;;;56.27;2.27;;;;;;;;;;5034135;28;20447;-71
2023/06/23 12:10:37;;;;;;;56.27;2.17;;;;;;;;;;5033373;28;20495;-71
2023/06/23 12:13:04;;;;;;;55.73;1.70;;;;;;;;;;5033775;28;20849;-71
2023/06/23 12:15:31;;;;;;;56.50;2.30;;;;;;;;;;5034057;28;20536;-71
2023/06/23 12:17:59;;;;;;;56.53;2.67;;;;;;;;;;5034260;28;20460;-71
2023/06/23 12:20:27;;;;;;;56.20;1.70;;;;;;;;;;5033030;28;20457;-71
2023/06/23 12:22:54;;;;;;;56.27;2.00;;;;;;;;;;5033678;28;21021;-71
2023/06/23 12:25:22;;;;;;;56.27;1.97;;;;;;;;;;5033875;28;20445;-71
2023/06/23 12:27:52;;;;;;;58.53;2.87;;;;;;;;;;5033735;28;21040;-71
2023/06/23 12:30:21;;;;;;;55.67;1.70;;;;;;;;;;5033194;28;20450;-71
2023/06/23 12:32:48;;;;;;;55.93;1.90;;;;;;;;;;5033711;28;20471;-71
2023/06/23 12:35:18;;;;;;;56.40;2.20;;;;;;;;;;5034103;28;20452;-71
2023/06/23 12:37:47;;;;;;;56.67;2.20;;;;;;;;;;5046265;28;20618;-71
2023/06/23 12:40:29;;;;;;;56.60;2.37;;;;;;;;;;5053168;28;20508;-70
2023/06/23 12:42:57;;;;;;;56.67;2.17;;;;;;;;;;5046904;28;21019;-71
2023/06/23 12:45:24;;;;;;;58.07;2.20;;;;;;;;;;5052291;28;20453;-70
2023/06/23 12:47:52;;;;;;;58.37;3.00;;;;;;;;;;5033982;28;20885;-71
2023/06/23 12:50:26;;;;;;;56.80;1.90;;;;;;;;;;5032479;28;20453;-71
2023/06/23 12:52:53;;;;;;;56.30;2.00;;;;;;;;;;5033490;28;20479;-70
2023/06/23 12:55:20;;;;;;;56.20;1.93;;;;;;;;;;5032944;28;20465;-71
2023/06/23 12:57:49;;;;;;;56.27;1.83;;;;;;;;;;5033493;28;20434;-70
2023/06/23 13:00:17;;;;;;;57.00;1.90;;;;;;;;;;5032670;28;20794;-71
2023/06/23 13:02:44;;;;;;;57.20;2.00;;;;;;;;;;5032845;28;21003;-71
2023/06/23 13:05:11;;;;;;;56.47;2.00;;;;;;;;;;5033217;28;20449;-71
2023/06/23 13:07:39;;;;;;;56.80;2.20;;;;;;;;;;5033105;28;20445;-70
2023/06/23 13:10:07;;;;;;;56.67;1.77;;;;;;;;;;5032192;28;20544;-71
2023/06/23 13:12:34;;;;;;;57.83;2.43;;;;;;;;;;5032941;28;20449;-70
2023/06/23 13:15:03;;;;;;;57.30;2.20;;;;;;;;;;5032774;28;20469;-71
2023/06/23 13:17:30;;;;;;;57.00;1.80;;;;;;;;;;5032630;28;20969;-70
2023/06/23 13:19:57;;;;;;;56.90;2.10;;;;;;;;;;5032320;28;20442;-71
2023/06/23 13:22:24;;;;;;;56.60;2.37;;;;;;;;;;5033136;28;20476;-71
2023/06/23 13:24:56;;;;;;;57.20;2.40;;;;;;;;;;5032745;28;20556;-71
2023/06/23 13:27:23;;;;;;;56.53;2.30;;;;;;;;;;5032591;28;20449;-70
2023/06/23 13:29:50;;;;;;;57.40;2.30;;;;;;;;;;5031913;28;20833;-70
2023/06/23 13:32:19;;;;;;;56.60;2.20;;;;;;;;;;5032774;28;20445;-71
2023/06/23 13:34:46;;;;;;;56.80;2.10;;;;;;;;;;5032358;28;20480;-71
2023/06/23 13:37:14;;;;;;;56.47;1.90;;;;;;;;;;5032599;28;20445;-71
2023/06/23 13:39:41;;;;;;;56.07;1.70;;;;;;;;;;5031660;28;20457;-71
2023/06/23 13:42:08;;;;;;;56.40;2.10;;;;;;;;;;5032466;28;20485;-71
2023/06/23 13:44:35;;;;;;;56.00;1.80;;;;;;;;;;5032378;28;20477;-71
2023/06/23 13:47:03;;;;;;;55.83;1.90;;;;;;;;;;5032342;28;20628;-72
2023/06/23 13:49:31;;;;;;;56.00;2.07;;;;;;;;;;5031666;28;20445;-71
2023/06/23 13:51:58;;;;;;;55.70;2.00;;;;;;;;;;5032390;28;21063;-72
2023/06/23 13:54:27;;;;;;;55.50;1.60;;;;;;;;;;5032130;28;20472;-71
2023/06/23 13:56:54;;;;;;;55.37;1.60;;;;;;;;;;5031755;28;20511;-71
2023/06/23 13:59:21;;;;;;;55.67;1.80;;;;;;;;;;5031369;28;20491;-72
2023/06/23 14:01:50;;;;;;;55.90;1.60;;;;;;;;;;5031315;28;20853;-70
2023/06/23 14:04:18;;;;;;;55.87;1.70;;;;;;;;;;5032071;28;20523;-71
2023/06/23 14:06:47;;;;;;;56.40;1.97;;;;;;;;;;5032115;28;20846;-71
2023/06/23 14:09:15;;;;;;;56.17;2.10;;;;;;;;;;5031085;28;20950;-72
2023/06/23 14:11:42;;;;;;;56.10;2.17;;;;;;;;;;5031941;28;20445;-72
2023/06/23 14:14:10;;;;;;;56.70;2.63;;;;;;;;;;5031785;28;20530;-72
2023/06/23 14:16:37;;;;;;;56.20;2.53;;;;;;;;;;5031857;28;20460;-71
2023/06/23 14:19:04;;;;;;;56.20;2.00;;;;;;;;;;5030936;28;20456;-72
2023/06/23 14:21:31;;;;;;;55.70;1.87;;;;;;;;;;5031985;28;20582;-71
2023/06/23 14:24:00;;;;;;;55.80;1.70;;;;;;;;;;5031465;28;20474;-72
2023/06/23 14:26:27;;;;;;;55.70;1.80;;;;;;;;;;5031704;28;20655;-71
2023/06/23 14:28:54;;;;;;;55.53;2.03;;;;;;;;;;5030920;28;20859;-72
2023/06/23 14:31:21;;;;;;;55.53;1.80;;;;;;;;;;5031776;28;20452;-71
2023/06/23 14:33:48;;;;;;;55.83;2.13;;;;;;;;;;5031530;28;20469;-72
2023/06/23 14:36:15;;;;;;;55.77;1.80;;;;;;;;;;5031370;28;20944;-71
2023/06/23 14:38:42;;;;;;;56.57;2.23;;;;;;;;;;5050253;28;20457;-71
2023/06/23 14:41:11;;;;;;;55.97;2.07;;;;;;;;;;5051245;28;20444;-72
2023/06/23 14:43:38;;;;;;;55.67;2.00;;;;;;;;;;5037980;28;20464;-72
2023/06/23 14:46:05;;;;;;;55.90;2.07;;;;;;;;;;5044272;28;20449;-72
2023/06/23 14:48:32;;;;;;;56.10;1.90;;;;;;;;;;5031072;28;20483;-71
2023/06/23 14:51:00;;;;;;;55.47;1.50;;;;;;;;;;5033916;28;20449;-71
2023/06/23 14:53:27;;;;;;;56.10;1.93;;;;;;;;;;5050995;28;20479;-71